DEFOG EDDS-EDDS

Flight info

Callsign DEFOG
Flight time 0h 10m
Altitude
Route
Aircraft PC12

Departure

Time 2026-05-04 17:40
Airport Stuttgart Airport (EDDS)

Arrival

Time 2026-05-04 17:51
Airport Stuttgart Airport (EDDS)
Time Latitude Longitude Altitude Speed Heading
2026-05-04 17:35 48.69170 9.21314 1283 ft 0 kts 197°
2026-05-04 17:36 48.69163 9.21311 1282 ft 5 kts 199°
2026-05-04 17:36 48.69134 9.21295 1282 ft 3 kts 168°
2026-05-04 17:37 48.69091 9.21341 1282 ft 13 kts 106°
2026-05-04 17:37 48.69034 9.21431 1282 ft 13 kts 165°
2026-05-04 17:37 48.68974 9.21455 1282 ft 7 kts 164°
2026-05-04 17:37 48.68968 9.21458 1282 ft 0 kts 164°
2026-05-04 17:38 48.68965 9.21459 1282 ft 3 kts 164°
2026-05-04 17:38 48.68880 9.21496 1283 ft 13 kts 161°
2026-05-04 17:38 48.68863 9.21536 1282 ft 0 kts 74°
2026-05-04 17:40 48.68918 9.21820 1282 ft 61 kts 75°
2026-05-04 17:40 48.69082 9.22710 1299 ft 110 kts 74°
2026-05-04 17:40 48.69296 9.23950 1666 ft 130 kts 73°
2026-05-04 17:40 48.69558 9.25455 1955 ft 163 kts 76°
2026-05-04 17:41 48.69839 9.27207 2268 ft 178 kts 75°
2026-05-04 17:41 48.70608 9.28665 2536 ft 185 kts 25°
2026-05-04 17:41 48.71841 9.28630 2544 ft 190 kts 327°
2026-05-04 17:41 48.72389 9.26949 2836 ft 184 kts 271°
2026-05-04 17:42 48.72277 9.25034 2848 ft 180 kts 262°
2026-05-04 17:42 48.72087 9.23190 2739 ft 177 kts 259°
2026-05-04 17:42 48.71861 9.21461 2614 ft 163 kts 259°
2026-05-04 17:42 48.71628 9.19825 2507 ft 163 kts 256°
2026-05-04 17:43 48.71342 9.18219 2514 ft 143 kts 253°
2026-05-04 17:43 48.70802 9.17120 2282 ft 132 kts 213°
2026-05-04 17:43 48.69952 9.16762 2135 ft 126 kts 177°
2026-05-04 17:43 48.69095 9.17093 2005 ft 130 kts 155°
2026-05-04 17:44 48.68487 9.18131 1786 ft 136 kts 110°
2026-05-04 17:44 48.68486 9.19557 1522 ft 140 kts 75°
2026-05-04 17:44 48.68739 9.20898 1292 ft 122 kts 73°
2026-05-04 17:44 48.68949 9.21998 1283 ft 106 kts 73°
2026-05-04 17:45 48.69178 9.23222 1478 ft 136 kts 74°
2026-05-04 17:45 48.69450 9.24746 1793 ft 163 kts 75°
2026-05-04 17:45 48.69714 9.26467 2302 ft 172 kts 78°
2026-05-04 17:45 48.69939 9.28270 2583 ft 181 kts 79°
2026-05-04 17:46 48.70419 9.29904 2756 ft 167 kts 36°
2026-05-04 17:46 48.71503 9.30284 2870 ft 160 kts 357°
2026-05-04 17:46 48.72271 9.29283 3009 ft 159 kts 282°
2026-05-04 17:46 48.72318 9.27575 3036 ft 164 kts 268°
2026-05-04 17:47 48.72269 9.25833 3137 ft 162 kts 266°
2026-05-04 17:47 48.72168 9.24152 3230 ft 160 kts 263°
2026-05-04 17:47 48.71727 9.22616 3252 ft 166 kts 237°
2026-05-04 17:47 48.70793 9.21534 3134 ft 176 kts 192°
2026-05-04 17:48 48.69562 9.21758 2846 ft 203 kts 167°
2026-05-04 17:48 48.68118 9.22290 2665 ft 213 kts 166°
2026-05-04 17:48 48.66813 9.22822 2448 ft 183 kts 165°
2026-05-04 17:48 48.65806 9.22197 2343 ft 160 kts 250°
2026-05-04 17:49 48.65644 9.20685 2272 ft 134 kts 262°
2026-05-04 17:49 48.65541 9.19467 2314 ft 110 kts 262°
2026-05-04 17:49 48.65443 9.18302 2334 ft 114 kts 278°
2026-05-04 17:49 48.65897 9.17345 2350 ft 120 kts 330°
2026-05-04 17:50 48.66767 9.17073 2261 ft 134 kts 353°
2026-05-04 17:50 48.67627 9.17036 2080 ft 122 kts
2026-05-04 17:50 48.68194 9.17893 1800 ft 123 kts 74°
2026-05-04 17:50 48.68398 9.19087 1481 ft 109 kts 75°
2026-05-04 17:51 48.68596 9.20134 1316 ft 97 kts 75°
2026-05-04 17:51 48.68767 9.21033 1282 ft 78 kts 75°
2026-05-04 17:51 48.68846 9.21441 1282 ft 20 kts 44°
2026-05-04 17:51 48.68947 9.21466 1282 ft 10 kts 344°
2026-05-04 17:52 48.69052 9.21424 1284 ft 20 kts 355°
2026-05-04 17:52 48.69169 9.21410 1282 ft 0 kts 345°
2026-05-04 17:52 48.69170 9.21410 1282 ft 0 kts 345°